<?xml version="1.0" encoding="UTF-8" standalone="no" ?>
<gpx xmlns="http://www.topografix.com/GPX/1/1" xmlns:xsi="http://www.w3.org/2001/XMLSchema-instance" xsi:schemaLocation="http://www.topografix.com/GPX/1/1 http://www.topografix.com/GPX/1/1/gpx.xsd" version="1.1" creator="VisuGPX - https://www.visugpx.com">
  <metadata>
    <name>Tour de France 2019</name>
    <desc><![CDATA[4272km en 2 mois en tandem avec notre petit chien dans le panier avant]]></desc>
  </metadata>
  <trk>
    <name><![CDATA[Tracé 20191113-083803]]></name>
    <trkseg>
      <trkpt lat="48.83958" lon="-0.89028">
        <ele>168.993</ele>
        <time>2019-11-13T07:41:51Z</time>
      </trkpt>
      <trkpt lat="48.84033" lon="-0.89071">
        <ele>180.421</ele>
        <time>2019-11-13T07:45:24Z</time>
      </trkpt>
      <trkpt lat="48.8439" lon="-0.8877">
        <ele>150.43</ele>
        <time>2019-11-13T07:45:58Z</time>
      </trkpt>
      <trkpt lat="48.84666" lon="-0.88525">
        <ele>125.073</ele>
        <time>2019-11-13T07:46:31Z</time>
      </trkpt>
      <trkpt lat="48.84746" lon="-0.88382">
        <ele>124.054</ele>
        <time>2019-11-13T07:47:01Z</time>
      </trkpt>
      <trkpt lat="48.84851" lon="-0.88419">
        <ele>128.473</ele>
        <time>2019-11-13T07:47:52Z</time>
      </trkpt>
      <trkpt lat="48.84872" lon="-0.88392">
        <ele>120.741</ele>
        <time>2019-11-13T07:48:25Z</time>
      </trkpt>
      <trkpt lat="48.84857" lon="-0.88318">
        <ele>126.642</ele>
        <time>2019-11-13T07:49:49Z</time>
      </trkpt>
      <trkpt lat="48.84871" lon="-0.88388">
        <ele>127.707</ele>
        <time>2019-11-13T07:50:22Z</time>
      </trkpt>
      <trkpt lat="48.85024" lon="-0.88515">
        <ele>120.886</ele>
        <time>2019-11-13T07:50:55Z</time>
      </trkpt>
      <trkpt lat="48.85204" lon="-0.88516">
        <ele>123.336</ele>
        <time>2019-11-13T07:51:28Z</time>
      </trkpt>
      <trkpt lat="48.85339" lon="-0.88572">
        <ele>118.098</ele>
        <time>2019-11-13T07:52:01Z</time>
      </trkpt>
      <trkpt lat="48.85442" lon="-0.88594">
        <ele>120.635</ele>
        <time>2019-11-13T07:52:34Z</time>
      </trkpt>
      <trkpt lat="48.85635" lon="-0.88641">
        <ele>116.637</ele>
        <time>2019-11-13T07:53:04Z</time>
      </trkpt>
      <trkpt lat="48.85885" lon="-0.8871">
        <ele>109.352</ele>
        <time>2019-11-13T07:53:37Z</time>
      </trkpt>
      <trkpt lat="48.86127" lon="-0.88701">
        <ele>106.52</ele>
        <time>2019-11-13T07:54:10Z</time>
      </trkpt>
      <trkpt lat="48.86342" lon="-0.88595">
        <ele>94.221</ele>
        <time>2019-11-13T07:54:43Z</time>
      </trkpt>
      <trkpt lat="48.86398" lon="-0.88603">
        <ele>97.074</ele>
        <time>2019-11-13T07:55:43Z</time>
      </trkpt>
      <trkpt lat="48.86525" lon="-0.88607">
        <ele>97.678</ele>
        <time>2019-11-13T07:56:16Z</time>
      </trkpt>
      <trkpt lat="48.86662" lon="-0.88589">
        <ele>97.498</ele>
        <time>2019-11-13T07:56:49Z</time>
      </trkpt>
      <trkpt lat="48.86804" lon="-0.88529">
        <ele>96.037</ele>
        <time>2019-11-13T07:57:22Z</time>
      </trkpt>
      <trkpt lat="48.8694" lon="-0.88416">
        <ele>97.472</ele>
        <time>2019-11-13T07:57:52Z</time>
      </trkpt>
      <trkpt lat="48.87061" lon="-0.88281">
        <ele>93.36</ele>
        <time>2019-11-13T07:58:25Z</time>
      </trkpt>
      <trkpt lat="48.87206" lon="-0.88167">
        <ele>87.947</ele>
        <time>2019-11-13T07:58:58Z</time>
      </trkpt>
      <trkpt lat="48.87365" lon="-0.88121">
        <ele>90.936</ele>
        <time>2019-11-13T07:59:31Z</time>
      </trkpt>
      <trkpt lat="48.87472" lon="-0.88124">
        <ele>91.225</ele>
        <time>2019-11-13T08:00:16Z</time>
      </trkpt>
      <trkpt lat="48.87513" lon="-0.88131">
        <ele>89.724</ele>
        <time>2019-11-13T08:00:58Z</time>
      </trkpt>
      <trkpt lat="48.87639" lon="-0.88159">
        <ele>88.968</ele>
        <time>2019-11-13T08:01:31Z</time>
      </trkpt>
      <trkpt lat="48.87784" lon="-0.88191">
        <ele>89.367</ele>
        <time>2019-11-13T08:02:04Z</time>
      </trkpt>
      <trkpt lat="48.87908" lon="-0.88214">
        <ele>90.35</ele>
        <time>2019-11-13T08:02:34Z</time>
      </trkpt>
      <trkpt lat="48.88051" lon="-0.88243">
        <ele>90.586</ele>
        <time>2019-11-13T08:03:07Z</time>
      </trkpt>
      <trkpt lat="48.88197" lon="-0.88273">
        <ele>89.221</ele>
        <time>2019-11-13T08:03:40Z</time>
      </trkpt>
      <trkpt lat="48.88328" lon="-0.883">
        <ele>90.59</ele>
        <time>2019-11-13T08:04:13Z</time>
      </trkpt>
      <trkpt lat="48.88481" lon="-0.88332">
        <ele>89.335</ele>
        <time>2019-11-13T08:04:46Z</time>
      </trkpt>
      <trkpt lat="48.886" lon="-0.88359">
        <ele>88.275</ele>
        <time>2019-11-13T08:05:16Z</time>
      </trkpt>
      <trkpt lat="48.88659" lon="-0.88365">
        <ele>88.902</ele>
        <time>2019-11-13T08:06:13Z</time>
      </trkpt>
      <trkpt lat="48.88766" lon="-0.88391">
        <ele>88.448</ele>
        <time>2019-11-13T08:06:46Z</time>
      </trkpt>
      <trkpt lat="48.88822" lon="-0.88407">
        <ele>86.082</ele>
        <time>2019-11-13T08:07:22.001Z</time>
      </trkpt>
      <trkpt lat="48.88915" lon="-0.88419">
        <ele>86.896</ele>
        <time>2019-11-13T08:07:52.001Z</time>
      </trkpt>
      <trkpt lat="48.8906" lon="-0.88403">
        <ele>93.693</ele>
        <time>2019-11-13T08:08:25.001Z</time>
      </trkpt>
      <trkpt lat="48.89198" lon="-0.88388">
        <ele>92.952</ele>
        <time>2019-11-13T08:08:58.001Z</time>
      </trkpt>
      <trkpt lat="48.89344" lon="-0.88379">
        <ele>91.414</ele>
        <time>2019-11-13T08:09:31.001Z</time>
      </trkpt>
      <trkpt lat="48.89382" lon="-0.88502">
        <ele>89.276</ele>
        <time>2019-11-13T08:10:01.001Z</time>
      </trkpt>
      <trkpt lat="48.89381" lon="-0.88717">
        <ele>92.572</ele>
        <time>2019-11-13T08:10:34.001Z</time>
      </trkpt>
      <trkpt lat="48.89381" lon="-0.88812">
        <ele>93.071</ele>
        <time>2019-11-13T08:11:07.001Z</time>
      </trkpt>
      <trkpt lat="48.89442" lon="-0.88861">
        <ele>99.723</ele>
        <time>2019-11-13T08:11:43.001Z</time>
      </trkpt>
      <trkpt lat="48.89552" lon="-0.88884">
        <ele>101.075</ele>
        <time>2019-11-13T08:12:13.001Z</time>
      </trkpt>
      <trkpt lat="48.89669" lon="-0.88909">
        <ele>101.999</ele>
        <time>2019-11-13T08:12:46.001Z</time>
      </trkpt>
      <trkpt lat="48.89792" lon="-0.88955">
        <ele>98.932</ele>
        <time>2019-11-13T08:13:19.001Z</time>
      </trkpt>
      <trkpt lat="48.89996" lon="-0.88967">
        <ele>90.552</ele>
        <time>2019-11-13T08:13:52.001Z</time>
      </trkpt>
      <trkpt lat="48.90155" lon="-0.89082">
        <ele>90.667</ele>
        <time>2019-11-13T08:14:22.001Z</time>
      </trkpt>
      <trkpt lat="48.90315" lon="-0.89033">
        <ele>87.124</ele>
        <time>2019-11-13T08:14:55.001Z</time>
      </trkpt>
      <trkpt lat="48.90516" lon="-0.89118">
        <ele>83.62</ele>
        <time>2019-11-13T08:15:28.001Z</time>
      </trkpt>
      <trkpt lat="48.90696" lon="-0.89161">
        <ele>81.852</ele>
        <time>2019-11-13T08:16:01.001Z</time>
      </trkpt>
      <trkpt lat="48.90793" lon="-0.89186">
        <ele>85.075</ele>
        <time>2019-11-13T08:16:34.001Z</time>
      </trkpt>
      <trkpt lat="48.90845" lon="-0.89217">
        <ele>89.3</ele>
        <time>2019-11-13T08:17:04.001Z</time>
      </trkpt>
      <trkpt lat="48.90896" lon="-0.89246">
        <ele>96.597</ele>
        <time>2019-11-13T08:17:37.001Z</time>
      </trkpt>
      <trkpt lat="48.9095" lon="-0.89279">
        <ele>101.968</ele>
        <time>2019-11-13T08:18:13.001Z</time>
      </trkpt>
      <trkpt lat="48.9101" lon="-0.89317">
        <ele>107.22</ele>
        <time>2019-11-13T08:18:46.001Z</time>
      </trkpt>
      <trkpt lat="48.91079" lon="-0.8936">
        <ele>110.603</ele>
        <time>2019-11-13T08:19:16Z</time>
      </trkpt>
      <trkpt lat="48.91166" lon="-0.89408">
        <ele>109.799</ele>
        <time>2019-11-13T08:19:49.001Z</time>
      </trkpt>
      <trkpt lat="48.91257" lon="-0.89399">
        <ele>112.339</ele>
        <time>2019-11-13T08:20:22.001Z</time>
      </trkpt>
      <trkpt lat="48.91334" lon="-0.89337">
        <ele>113.534</ele>
        <time>2019-11-13T08:20:55.001Z</time>
      </trkpt>
      <trkpt lat="48.91396" lon="-0.89248">
        <ele>116.363</ele>
        <time>2019-11-13T08:21:25.001Z</time>
      </trkpt>
      <trkpt lat="48.9147" lon="-0.89141">
        <ele>117.102</ele>
        <time>2019-11-13T08:21:58.001Z</time>
      </trkpt>
      <trkpt lat="48.91595" lon="-0.88972">
        <ele>114.488</ele>
        <time>2019-11-13T08:22:31.001Z</time>
      </trkpt>
      <trkpt lat="48.91696" lon="-0.88865">
        <ele>108.499</ele>
        <time>2019-11-13T08:29:40.001Z</time>
      </trkpt>
      <trkpt lat="48.91862" lon="-0.88765">
        <ele>99.24</ele>
        <time>2019-11-13T08:30:10.001Z</time>
      </trkpt>
      <trkpt lat="48.9208" lon="-0.88778">
        <ele>90.738</ele>
        <time>2019-11-13T08:30:43.001Z</time>
      </trkpt>
      <trkpt lat="48.9223" lon="-0.88717">
        <ele>90.181</ele>
        <time>2019-11-13T08:31:16Z</time>
      </trkpt>
      <trkpt lat="48.92434" lon="-0.88735">
        <ele>79.808</ele>
        <time>2019-11-13T08:31:52.001Z</time>
      </trkpt>
      <trkpt lat="48.92548" lon="-0.8878">
        <ele>79.257</ele>
        <time>2019-11-13T08:32:22.001Z</time>
      </trkpt>
      <trkpt lat="48.92671" lon="-0.88951">
        <ele>80.565</ele>
        <time>2019-11-13T08:32:55.001Z</time>
      </trkpt>
      <trkpt lat="48.92784" lon="-0.8913">
        <ele>80.602</ele>
        <time>2019-11-13T08:33:28.001Z</time>
      </trkpt>
      <trkpt lat="48.9289" lon="-0.89271">
        <ele>80.403</ele>
        <time>2019-11-13T08:34:01.001Z</time>
      </trkpt>
      <trkpt lat="48.93029" lon="-0.89324">
        <ele>81.68</ele>
        <time>2019-11-13T08:34:34.001Z</time>
      </trkpt>
      <trkpt lat="48.93186" lon="-0.89355">
        <ele>81.38</ele>
        <time>2019-11-13T08:35:04.001Z</time>
      </trkpt>
      <trkpt lat="48.93326" lon="-0.89399">
        <ele>80.345</ele>
        <time>2019-11-13T08:35:37.001Z</time>
      </trkpt>
      <trkpt lat="48.93484" lon="-0.89469">
        <ele>81.907</ele>
        <time>2019-11-13T08:36:10.001Z</time>
      </trkpt>
      <trkpt lat="48.93592" lon="-0.89583">
        <ele>86.053</ele>
        <time>2019-11-13T08:36:43.001Z</time>
      </trkpt>
      <trkpt lat="48.9371" lon="-0.89657">
        <ele>90.865</ele>
        <time>2019-11-13T08:37:13.001Z</time>
      </trkpt>
      <trkpt lat="48.93746" lon="-0.89697">
        <ele>90.334</ele>
        <time>2019-11-13T08:37:52.001Z</time>
      </trkpt>
      <trkpt lat="48.93801" lon="-0.89754">
        <ele>95.826</ele>
        <time>2019-11-13T08:38:31.001Z</time>
      </trkpt>
      <trkpt lat="48.93859" lon="-0.898">
        <ele>100.108</ele>
        <time>2019-11-13T08:39:10.001Z</time>
      </trkpt>
      <trkpt lat="48.93917" lon="-0.89808">
        <ele>105.153</ele>
        <time>2019-11-13T08:39:46.001Z</time>
      </trkpt>
      <trkpt lat="48.93987" lon="-0.89822">
        <ele>108.168</ele>
        <time>2019-11-13T08:40:25.001Z</time>
      </trkpt>
      <trkpt lat="48.94051" lon="-0.89804">
        <ele>112.618</ele>
        <time>2019-11-13T08:41:07.001Z</time>
      </trkpt>
      <trkpt lat="48.94117" lon="-0.8986">
        <ele>118.747</ele>
        <time>2019-11-13T08:42:01.001Z</time>
      </trkpt>
      <trkpt lat="48.94139" lon="-0.89877">
        <ele>121.108</ele>
        <time>2019-11-13T08:43:25.001Z</time>
      </trkpt>
      <trkpt lat="48.94199" lon="-0.89869">
        <ele>118.659</ele>
        <time>2019-11-13T08:44:04.001Z</time>
      </trkpt>
      <trkpt lat="48.94255" lon="-0.89946">
        <ele>122.618</ele>
        <time>2019-11-13T08:44:40.001Z</time>
      </trkpt>
      <trkpt lat="48.94319" lon="-0.89988">
        <ele>131.771</ele>
        <time>2019-11-13T08:45:16Z</time>
      </trkpt>
      <trkpt lat="48.94391" lon="-0.89993">
        <ele>133.296</ele>
        <time>2019-11-13T08:45:46.001Z</time>
      </trkpt>
      <trkpt lat="48.94457" lon="-0.89982">
        <ele>137.347</ele>
        <time>2019-11-13T08:46:22.001Z</time>
      </trkpt>
      <trkpt lat="48.94575" lon="-0.89941">
        <ele>129.823</ele>
        <time>2019-11-13T08:46:55.001Z</time>
      </trkpt>
      <trkpt lat="48.94733" lon="-0.8986">
        <ele>115.255</ele>
        <time>2019-11-13T08:47:28.001Z</time>
      </trkpt>
      <trkpt lat="48.94868" lon="-0.89612">
        <ele>86.235</ele>
        <time>2019-11-13T08:48:01.001Z</time>
      </trkpt>
      <trkpt lat="48.94944" lon="-0.89429">
        <ele>65.965</ele>
        <time>2019-11-13T08:48:31.001Z</time>
      </trkpt>
      <trkpt lat="48.94963" lon="-0.89324">
        <ele>63.277</ele>
        <time>2019-11-13T08:49:04.001Z</time>
      </trkpt>
      <trkpt lat="48.94923" lon="-0.89226">
        <ele>67.262</ele>
        <time>2019-11-13T08:49:37.001Z</time>
      </trkpt>
      <trkpt lat="48.94876" lon="-0.89047">
        <ele>70.451</ele>
        <time>2019-11-13T08:50:10.001Z</time>
      </trkpt>
      <trkpt lat="48.9488" lon="-0.88947">
        <ele>79.673</ele>
        <time>2019-11-13T08:50:40.001Z</time>
      </trkpt>
      <trkpt lat="48.94948" lon="-0.88961">
        <ele>89.747</ele>
        <time>2019-11-13T08:51:16Z</time>
      </trkpt>
      <trkpt lat="48.9501" lon="-0.88941">
        <ele>101.346</ele>
        <time>2019-11-13T08:51:52.001Z</time>
      </trkpt>
      <trkpt lat="48.95076" lon="-0.8892">
        <ele>106.245</ele>
        <time>2019-11-13T08:52:25.001Z</time>
      </trkpt>
      <trkpt lat="48.95129" lon="-0.88898">
        <ele>112.762</ele>
        <time>2019-11-13T08:52:55.001Z</time>
      </trkpt>
      <trkpt lat="48.95195" lon="-0.8887">
        <ele>117.512</ele>
        <time>2019-11-13T08:53:28.001Z</time>
      </trkpt>
      <trkpt lat="48.9527" lon="-0.88836">
        <ele>117.178</ele>
        <time>2019-11-13T08:54:01.001Z</time>
      </trkpt>
      <trkpt lat="48.95336" lon="-0.88808">
        <ele>116.448</ele>
        <time>2019-11-13T08:54:34.001Z</time>
      </trkpt>
      <trkpt lat="48.95396" lon="-0.88776">
        <ele>121.813</ele>
        <time>2019-11-13T08:55:07.001Z</time>
      </trkpt>
      <trkpt lat="48.95471" lon="-0.88733">
        <ele>117.252</ele>
        <time>2019-11-13T08:55:40.001Z</time>
      </trkpt>
      <trkpt lat="48.95548" lon="-0.88666">
        <ele>118.329</ele>
        <time>2019-11-13T08:56:13.001Z</time>
      </trkpt>
      <trkpt lat="48.95623" lon="-0.88645">
        <ele>126.044</ele>
        <time>2019-11-13T08:56:46.001Z</time>
      </trkpt>
      <trkpt lat="48.95724" lon="-0.88696">
        <ele>126.698</ele>
        <time>2019-11-13T08:57:16Z</time>
      </trkpt>
      <trkpt lat="48.95786" lon="-0.88782">
        <ele>141.562</ele>
        <time>2019-11-13T08:57:49.001Z</time>
      </trkpt>
      <trkpt lat="48.95847" lon="-0.88835">
        <ele>140.771</ele>
        <time>2019-11-13T08:58:25.001Z</time>
      </trkpt>
      <trkpt lat="48.95913" lon="-0.88813">
        <ele>137.35</ele>
        <time>2019-11-13T08:58:58.001Z</time>
      </trkpt>
      <trkpt lat="48.95981" lon="-0.88789">
        <ele>140.483</ele>
        <time>2019-11-13T08:59:31.001Z</time>
      </trkpt>
      <trkpt lat="48.9604" lon="-0.88776">
        <ele>145.504</ele>
        <time>2019-11-13T09:00:04.001Z</time>
      </trkpt>
      <trkpt lat="48.9613" lon="-0.88746">
        <ele>155.675</ele>
        <time>2019-11-13T09:00:37.001Z</time>
      </trkpt>
      <trkpt lat="48.9625" lon="-0.88779">
        <ele>147.446</ele>
        <time>2019-11-13T09:01:10.001Z</time>
      </trkpt>
      <trkpt lat="48.96269" lon="-0.88918">
        <ele>140.359</ele>
        <time>2019-11-13T09:01:43.001Z</time>
      </trkpt>
      <trkpt lat="48.96299" lon="-0.89002">
        <ele>147.032</ele>
        <time>2019-11-13T09:02:13.001Z</time>
      </trkpt>
      <trkpt lat="48.96335" lon="-0.89093">
        <ele>149.903</ele>
        <time>2019-11-13T09:02:46.001Z</time>
      </trkpt>
      <trkpt lat="48.96375" lon="-0.89195">
        <ele>153.652</ele>
        <time>2019-11-13T09:03:19.001Z</time>
      </trkpt>
      <trkpt lat="48.9642" lon="-0.89309">
        <ele>154.73</ele>
        <time>2019-11-13T09:03:52.001Z</time>
      </trkpt>
      <trkpt lat="48.96462" lon="-0.89418">
        <ele>154.996</ele>
        <time>2019-11-13T09:04:22.001Z</time>
      </trkpt>
      <trkpt lat="48.9651" lon="-0.89538">
        <ele>156.574</ele>
        <time>2019-11-13T09:04:55.001Z</time>
      </trkpt>
      <trkpt lat="48.96577" lon="-0.89651">
        <ele>157.379</ele>
        <time>2019-11-13T09:05:28.001Z</time>
      </trkpt>
      <trkpt lat="48.9665" lon="-0.89762">
        <ele>158.609</ele>
        <time>2019-11-13T09:06:01.001Z</time>
      </trkpt>
      <trkpt lat="48.96704" lon="-0.89801">
        <ele>164.029</ele>
        <time>2019-11-13T09:06:31.001Z</time>
      </trkpt>
      <trkpt lat="48.96786" lon="-0.89732">
        <ele>166.139</ele>
        <time>2019-11-13T09:07:04.001Z</time>
      </trkpt>
      <trkpt lat="48.96888" lon="-0.89673">
        <ele>164.433</ele>
        <time>2019-11-13T09:07:37.001Z</time>
      </trkpt>
      <trkpt lat="48.96972" lon="-0.896">
        <ele>166.342</ele>
        <time>2019-11-13T09:08:10.001Z</time>
      </trkpt>
      <trkpt lat="48.97055" lon="-0.89546">
        <ele>169.771</ele>
        <time>2019-11-13T09:08:40.001Z</time>
      </trkpt>
      <trkpt lat="48.97191" lon="-0.89432">
        <ele>169.073</ele>
        <time>2019-11-13T09:09:13.001Z</time>
      </trkpt>
      <trkpt lat="48.97305" lon="-0.89322">
        <ele>168.43</ele>
        <time>2019-11-13T09:09:46.001Z</time>
      </trkpt>
      <trkpt lat="48.97369" lon="-0.89273">
        <ele>172.581</ele>
        <time>2019-11-13T09:10:19.001Z</time>
      </trkpt>
      <trkpt lat="48.97456" lon="-0.89216">
        <ele>176.916</ele>
        <time>2019-11-13T09:10:52.001Z</time>
      </trkpt>
      <trkpt lat="48.97512" lon="-0.89147">
        <ele>177.827</ele>
        <time>2019-11-13T09:11:22.001Z</time>
      </trkpt>
      <trkpt lat="48.97558" lon="-0.89051">
        <ele>182.649</ele>
        <time>2019-11-13T09:11:55.001Z</time>
      </trkpt>
      <trkpt lat="48.97642" lon="-0.89074">
        <ele>184.101</ele>
        <time>2019-11-13T09:12:28.001Z</time>
      </trkpt>
      <trkpt lat="48.97728" lon="-0.89083">
        <ele>187.577</ele>
        <time>2019-11-13T09:13:01.001Z</time>
      </trkpt>
      <trkpt lat="48.97851" lon="-0.89074">
        <ele>190.678</ele>
        <time>2019-11-13T09:13:31.001Z</time>
      </trkpt>
      <trkpt lat="48.98089" lon="-0.88906">
        <ele>174.802</ele>
        <time>2019-11-13T09:14:04.001Z</time>
      </trkpt>
      <trkpt lat="48.98367" lon="-0.88615">
        <ele>144.893</ele>
        <time>2019-11-13T09:14:37.001Z</time>
      </trkpt>
      <trkpt lat="48.98572" lon="-0.88467">
        <ele>129.115</ele>
        <time>2019-11-13T09:15:13.001Z</time>
      </trkpt>
      <trkpt lat="48.98634" lon="-0.88474">
        <ele>151.128</ele>
        <time>2019-11-13T09:16:01.001Z</time>
      </trkpt>
      <trkpt lat="48.9869" lon="-0.88419">
        <ele>159.722</ele>
        <time>2019-11-13T09:16:55.001Z</time>
      </trkpt>
      <trkpt lat="48.98729" lon="-0.8835">
        <ele>165.891</ele>
        <time>2019-11-13T09:17:37.001Z</time>
      </trkpt>
      <trkpt lat="48.98778" lon="-0.88293">
        <ele>176.537</ele>
        <time>2019-11-13T09:18:22.001Z</time>
      </trkpt>
      <trkpt lat="48.98841" lon="-0.88248">
        <ele>180.995</ele>
        <time>2019-11-13T09:19:07.001Z</time>
      </trkpt>
      <trkpt lat="48.98897" lon="-0.88216">
        <ele>189.069</ele>
        <time>2019-11-13T09:19:43.001Z</time>
      </trkpt>
      <trkpt lat="48.98961" lon="-0.88181">
        <ele>192.592</ele>
        <time>2019-11-13T09:20:16Z</time>
      </trkpt>
      <trkpt lat="48.99091" lon="-0.88105">
        <ele>193.945</ele>
        <time>2019-11-13T09:20:49.001Z</time>
      </trkpt>
      <trkpt lat="48.9931" lon="-0.87964">
        <ele>178.447</ele>
        <time>2019-11-13T09:21:19.001Z</time>
      </trkpt>
      <trkpt lat="48.99452" lon="-0.8788">
        <ele>175.514</ele>
        <time>2019-11-13T09:21:52.001Z</time>
      </trkpt>
      <trkpt lat="48.99631" lon="-0.87773">
        <ele>174.284</ele>
        <time>2019-11-13T09:22:25.001Z</time>
      </trkpt>
      <trkpt lat="48.99731" lon="-0.87712">
        <ele>171.345</ele>
        <time>2019-11-13T09:22:58.001Z</time>
      </trkpt>
      <trkpt lat="48.99785" lon="-0.87657">
        <ele>174.63</ele>
        <time>2019-11-13T09:23:37.001Z</time>
      </trkpt>
      <trkpt lat="48.99825" lon="-0.87599">
        <ele>184.52</ele>
        <time>2019-11-13T09:24:13.001Z</time>
      </trkpt>
      <trkpt lat="48.99872" lon="-0.87538">
        <ele>185.299</ele>
        <time>2019-11-13T09:24:46.001Z</time>
      </trkpt>
      <trkpt lat="48.99926" lon="-0.87463">
        <ele>186.322</ele>
        <time>2019-11-13T09:25:19.001Z</time>
      </trkpt>
      <trkpt lat="48.99999" lon="-0.87364">
        <ele>184.795</ele>
        <time>2019-11-13T09:25:52.001Z</time>
      </trkpt>
      <trkpt lat="49.00123" lon="-0.8715">
        <ele>179.042</ele>
        <time>2019-11-13T09:26:22.001Z</time>
      </trkpt>
      <trkpt lat="49.00079" lon="-0.87043">
        <ele>181.161</ele>
        <time>2019-11-13T09:26:55.001Z</time>
      </trkpt>
      <trkpt lat="49.00053" lon="-0.86898">
        <ele>182.325</ele>
        <time>2019-11-13T09:27:28.001Z</time>
      </trkpt>
      <trkpt lat="49.00102" lon="-0.86684">
        <ele>183.552</ele>
        <time>2019-11-13T09:28:01.001Z</time>
      </trkpt>
      <trkpt lat="49.00138" lon="-0.86582">
        <ele>188.309</ele>
        <time>2019-11-13T09:28:31.001Z</time>
      </trkpt>
      <trkpt lat="49.00163" lon="-0.86489">
        <ele>194.399</ele>
        <time>2019-11-13T09:29:07.001Z</time>
      </trkpt>
      <trkpt lat="49.00198" lon="-0.86382">
        <ele>193.089</ele>
        <time>2019-11-13T09:29:40.001Z</time>
      </trkpt>
      <trkpt lat="49.00252" lon="-0.86292">
        <ele>199.132</ele>
        <time>2019-11-13T09:30:13.001Z</time>
      </trkpt>
      <trkpt lat="49.00298" lon="-0.86175">
        <ele>202.067</ele>
        <time>2019-11-13T09:30:43.001Z</time>
      </trkpt>
      <trkpt lat="49.00418" lon="-0.85935">
        <ele>190.535</ele>
        <time>2019-11-13T09:31:16Z</time>
      </trkpt>
      <trkpt lat="49.00532" lon="-0.85524">
        <ele>169.542</ele>
        <time>2019-11-13T09:31:49.001Z</time>
      </trkpt>
      <trkpt lat="49.0056" lon="-0.85431">
        <ele>172.653</ele>
        <time>2019-11-13T09:32:31.001Z</time>
      </trkpt>
      <trkpt lat="49.00604" lon="-0.85348">
        <ele>183.637</ele>
        <time>2019-11-13T09:33:22.001Z</time>
      </trkpt>
      <trkpt lat="49.00676" lon="-0.85312">
        <ele>187.474</ele>
        <time>2019-11-13T09:34:04.001Z</time>
      </trkpt>
      <trkpt lat="49.00747" lon="-0.85285">
        <ele>193.141</ele>
        <time>2019-11-13T09:34:37.001Z</time>
      </trkpt>
      <trkpt lat="49.0082" lon="-0.85233">
        <ele>196.525</ele>
        <time>2019-11-13T09:35:10.001Z</time>
      </trkpt>
      <trkpt lat="49.00855" lon="-0.85106">
        <ele>198.272</ele>
        <time>2019-11-13T09:35:43.001Z</time>
      </trkpt>
      <trkpt lat="49.00874" lon="-0.84972">
        <ele>199.99</ele>
        <time>2019-11-13T09:36:13.001Z</time>
      </trkpt>
      <trkpt lat="49.0089" lon="-0.84829">
        <ele>200.24</ele>
        <time>2019-11-13T09:36:46.001Z</time>
      </trkpt>
      <trkpt lat="49.00899" lon="-0.84794">
        <ele>202.22</ele>
        <time>2019-11-13T09:41:04.001Z</time>
      </trkpt>
      <trkpt lat="49.00958" lon="-0.84755">
        <ele>205.897</ele>
        <time>2019-11-13T09:41:37.001Z</time>
      </trkpt>
      <trkpt lat="49.01043" lon="-0.84808">
        <ele>215.221</ele>
        <time>2019-11-13T09:42:07.001Z</time>
      </trkpt>
      <trkpt lat="49.01125" lon="-0.8479">
        <ele>213.851</ele>
        <time>2019-11-13T09:42:40.001Z</time>
      </trkpt>
      <trkpt lat="49.01146" lon="-0.84624">
        <ele>216.017</ele>
        <time>2019-11-13T09:43:13.001Z</time>
      </trkpt>
      <trkpt lat="49.01175" lon="-0.84485">
        <ele>216.491</ele>
        <time>2019-11-13T09:43:58.001Z</time>
      </trkpt>
      <trkpt lat="49.0129" lon="-0.84381">
        <ele>219.164</ele>
        <time>2019-11-13T09:44:31.001Z</time>
      </trkpt>
      <trkpt lat="49.0148" lon="-0.84189">
        <ele>204.289</ele>
        <time>2019-11-13T09:45:04.001Z</time>
      </trkpt>
      <trkpt lat="49.01707" lon="-0.83967">
        <ele>194.273</ele>
        <time>2019-11-13T09:45:37.001Z</time>
      </trkpt>
      <trkpt lat="49.02001" lon="-0.83678">
        <ele>178.504</ele>
        <time>2019-11-13T09:46:10.001Z</time>
      </trkpt>
      <trkpt lat="49.02271" lon="-0.8343">
        <ele>164.161</ele>
        <time>2019-11-13T09:46:40.001Z</time>
      </trkpt>
      <trkpt lat="49.02473" lon="-0.83274">
        <ele>164.404</ele>
        <time>2019-11-13T09:47:13.001Z</time>
      </trkpt>
      <trkpt lat="49.02615" lon="-0.83398">
        <ele>165.261</ele>
        <time>2019-11-13T09:47:46.001Z</time>
      </trkpt>
      <trkpt lat="49.02699" lon="-0.8333">
        <ele>169.248</ele>
        <time>2019-11-13T09:48:19.001Z</time>
      </trkpt>
      <trkpt lat="49.02808" lon="-0.8339">
        <ele>167.398</ele>
        <time>2019-11-13T09:48:49.001Z</time>
      </trkpt>
      <trkpt lat="49.03037" lon="-0.83475">
        <ele>161.133</ele>
        <time>2019-11-13T09:49:22.001Z</time>
      </trkpt>
      <trkpt lat="49.03286" lon="-0.83191">
        <ele>147.14</ele>
        <time>2019-11-13T09:49:55.001Z</time>
      </trkpt>
      <trkpt lat="49.03382" lon="-0.83072">
        <ele>150.846</ele>
        <time>2019-11-13T09:50:28.001Z</time>
      </trkpt>
      <trkpt lat="49.03467" lon="-0.83007">
        <ele>163.436</ele>
        <time>2019-11-13T09:51:01.001Z</time>
      </trkpt>
      <trkpt lat="49.03545" lon="-0.82957">
        <ele>167.635</ele>
        <time>2019-11-13T09:51:31.001Z</time>
      </trkpt>
      <trkpt lat="49.03614" lon="-0.8291">
        <ele>159.826</ele>
        <time>2019-11-13T09:55:28.001Z</time>
      </trkpt>
      <trkpt lat="49.03751" lon="-0.82832">
        <ele>157.716</ele>
        <time>2019-11-13T09:56:04.001Z</time>
      </trkpt>
      <trkpt lat="49.03928" lon="-0.82727">
        <ele>155.702</ele>
        <time>2019-11-13T09:56:37.002Z</time>
      </trkpt>
      <trkpt lat="49.04103" lon="-0.82622">
        <ele>148.712</ele>
        <time>2019-11-13T09:57:07.001Z</time>
      </trkpt>
      <trkpt lat="49.04344" lon="-0.82481">
        <ele>142.166</ele>
        <time>2019-11-13T09:57:40.001Z</time>
      </trkpt>
      <trkpt lat="49.04614" lon="-0.82459">
        <ele>131.968</ele>
        <time>2019-11-13T09:58:13.001Z</time>
      </trkpt>
      <trkpt lat="49.04829" lon="-0.82475">
        <ele>131.78</ele>
        <time>2019-11-13T09:58:46.001Z</time>
      </trkpt>
      <trkpt lat="49.04974" lon="-0.82478">
        <ele>136.744</ele>
        <time>2019-11-13T09:59:16Z</time>
      </trkpt>
      <trkpt lat="49.0511" lon="-0.82432">
        <ele>138.561</ele>
        <time>2019-11-13T09:59:49.001Z</time>
      </trkpt>
      <trkpt lat="49.05265" lon="-0.8238">
        <ele>136.444</ele>
        <time>2019-11-13T10:00:22.001Z</time>
      </trkpt>
      <trkpt lat="49.05454" lon="-0.82312">
        <ele>135.44</ele>
        <time>2019-11-13T10:00:55.001Z</time>
      </trkpt>
      <trkpt lat="49.05673" lon="-0.82236">
        <ele>129.991</ele>
        <time>2019-11-13T10:01:25.001Z</time>
      </trkpt>
      <trkpt lat="49.05895" lon="-0.82156">
        <ele>131.035</ele>
        <time>2019-11-13T10:01:58.001Z</time>
      </trkpt>
      <trkpt lat="49.06059" lon="-0.82099">
        <ele>125.367</ele>
        <time>2019-11-13T10:02:31.001Z</time>
      </trkpt>
      <trkpt lat="49.06152" lon="-0.82067">
        <ele>129.8</ele>
        <time>2019-11-13T10:03:04.001Z</time>
      </trkpt>
      <trkpt lat="49.06226" lon="-0.82011">
        <ele>133.375</ele>
        <time>2019-11-13T10:03:34.001Z</time>
      </trkpt>
      <trkpt lat="49.06317" lon="-0.81982">
        <ele>136.829</ele>
        <time>2019-11-13T10:04:07.001Z</time>
      </trkpt>
      <trkpt lat="49.06402" lon="-0.81981">
        <ele>139.321</ele>
        <time>2019-11-13T10:04:40.001Z</time>
      </trkpt>
      <trkpt lat="49.06499" lon="-0.8203">
        <ele>142.016</ele>
        <time>2019-11-13T10:05:13.001Z</time>
      </trkpt>
      <trkpt lat="49.06606" lon="-0.8208">
        <ele>143.258</ele>
        <time>2019-11-13T10:05:46.001Z</time>
      </trkpt>
      <trkpt lat="49.06712" lon="-0.82142">
        <ele>144.877</ele>
        <time>2019-11-13T10:06:16Z</time>
      </trkpt>
      <trkpt lat="49.06807" lon="-0.82209">
        <ele>144.743</ele>
        <time>2019-11-13T10:06:49.001Z</time>
      </trkpt>
      <trkpt lat="49.06882" lon="-0.82205">
        <ele>151.457</ele>
        <time>2019-11-13T10:07:22.001Z</time>
      </trkpt>
      <trkpt lat="49.06949" lon="-0.8219">
        <ele>155.059</ele>
        <time>2019-11-13T10:07:55.001Z</time>
      </trkpt>
      <trkpt lat="49.07005" lon="-0.82174">
        <ele>157.348</ele>
        <time>2019-11-13T10:08:25.001Z</time>
      </trkpt>
      <trkpt lat="49.07067" lon="-0.82159">
        <ele>162.501</ele>
        <time>2019-11-13T10:08:58.001Z</time>
      </trkpt>
      <trkpt lat="49.07126" lon="-0.82145">
        <ele>164.324</ele>
        <time>2019-11-13T10:09:31.001Z</time>
      </trkpt>
      <trkpt lat="49.07186" lon="-0.82131">
        <ele>168.555</ele>
        <time>2019-11-13T10:10:04.001Z</time>
      </trkpt>
      <trkpt lat="49.07243" lon="-0.82115">
        <ele>173.529</ele>
        <time>2019-11-13T10:10:34.001Z</time>
      </trkpt>
      <trkpt lat="49.07306" lon="-0.82101">
        <ele>177.01</ele>
        <time>2019-11-13T10:11:07.001Z</time>
      </trkpt>
      <trkpt lat="49.07372" lon="-0.82083">
        <ele>178.876</ele>
        <time>2019-11-13T10:11:40.001Z</time>
      </trkpt>
      <trkpt lat="49.07438" lon="-0.82072">
        <ele>187.212</ele>
        <time>2019-11-13T10:12:13.001Z</time>
      </trkpt>
      <trkpt lat="49.07515" lon="-0.82057">
        <ele>191.387</ele>
        <time>2019-11-13T10:12:43.001Z</time>
      </trkpt>
      <trkpt lat="49.07615" lon="-0.81983">
        <ele>196.816</ele>
        <time>2019-11-13T10:13:16Z</time>
      </trkpt>
      <trkpt lat="49.07717" lon="-0.81873">
        <ele>197.587</ele>
        <time>2019-11-13T10:13:49.001Z</time>
      </trkpt>
      <trkpt lat="49.07831" lon="-0.81781">
        <ele>192.956</ele>
        <time>2019-11-13T10:14:22.001Z</time>
      </trkpt>
      <trkpt lat="49.07937" lon="-0.81664">
        <ele>192.374</ele>
        <time>2019-11-13T10:14:52.001Z</time>
      </trkpt>
      <trkpt lat="49.0806" lon="-0.81497">
        <ele>194.745</ele>
        <time>2019-11-13T10:15:25.001Z</time>
      </trkpt>
      <trkpt lat="49.08177" lon="-0.81329">
        <ele>197.018</ele>
        <time>2019-11-13T10:15:58.001Z</time>
      </trkpt>
      <trkpt lat="49.08303" lon="-0.81225">
        <ele>194.604</ele>
        <time>2019-11-13T10:16:31.001Z</time>
      </trkpt>
      <trkpt lat="49.08373" lon="-0.81112">
        <ele>197.352</ele>
        <time>2019-11-13T10:17:04.001Z</time>
      </trkpt>
      <trkpt lat="49.08433" lon="-0.8106">
        <ele>202.239</ele>
        <time>2019-11-13T10:17:34.001Z</time>
      </trkpt>
      <trkpt lat="49.08487" lon="-0.8101">
        <ele>207.539</ele>
        <time>2019-11-13T10:18:07.001Z</time>
      </trkpt>
      <trkpt lat="49.08541" lon="-0.80959">
        <ele>216.664</ele>
        <time>2019-11-13T10:18:43.001Z</time>
      </trkpt>
      <trkpt lat="49.08591" lon="-0.80905">
        <ele>220.555</ele>
        <time>2019-11-13T10:19:16Z</time>
      </trkpt>
      <trkpt lat="49.08639" lon="-0.80857">
        <ele>224.506</ele>
        <time>2019-11-13T10:19:46.001Z</time>
      </trkpt>
      <trkpt lat="49.08693" lon="-0.808">
        <ele>227.692</ele>
        <time>2019-11-13T10:20:19.001Z</time>
      </trkpt>
      <trkpt lat="49.08745" lon="-0.80745">
        <ele>233.731</ele>
        <time>2019-11-13T10:20:52.001Z</time>
      </trkpt>
      <trkpt lat="49.08796" lon="-0.80693">
        <ele>237.554</ele>
        <time>2019-11-13T10:21:25.001Z</time>
      </trkpt>
      <trkpt lat="49.08841" lon="-0.80645">
        <ele>242.676</ele>
        <time>2019-11-13T10:21:55.001Z</time>
      </trkpt>
      <trkpt lat="49.08901" lon="-0.80602">
        <ele>242.979</ele>
        <time>2019-11-13T10:22:31.001Z</time>
      </trkpt>
      <trkpt lat="49.08967" lon="-0.80586">
        <ele>252.852</ele>
        <time>2019-11-13T10:23:07.001Z</time>
      </trkpt>
      <trkpt lat="49.09047" lon="-0.80594">
        <ele>252.779</ele>
        <time>2019-11-13T10:23:40.001Z</time>
      </trkpt>
      <trkpt lat="49.0906" lon="-0.80513">
        <ele>254.156</ele>
        <time>2019-11-13T10:24:10.001Z</time>
      </trkpt>
      <trkpt lat="49.09056" lon="-0.80521">
        <ele>248.629</ele>
        <time>2019-11-13T10:25:01.001Z</time>
      </trkpt>
      <trkpt lat="49.09052" lon="-0.80532">
        <ele>241.053</ele>
        <time>2019-11-13T10:27:19.001Z</time>
      </trkpt>
      <trkpt lat="49.09052" lon="-0.80526">
        <ele>241.815</ele>
        <time>2019-11-13T10:36:10.001Z</time>
      </trkpt>
      <trkpt lat="49.09053" lon="-0.80535">
        <ele>241.405</ele>
        <time>2019-11-13T10:36:55.001Z</time>
      </trkpt>
      <trkpt lat="49.09065" lon="-0.80531">
        <ele>241.156</ele>
        <time>2019-11-13T10:42:10.001Z</time>
      </trkpt>
      <trkpt lat="49.09068" lon="-0.80472">
        <ele>245.877</ele>
        <time>2019-11-13T10:43:19.001Z</time>
      </trkpt>
      <trkpt lat="49.09125" lon="-0.80334">
        <ele>255.47</ele>
        <time>2019-11-13T10:43:52.001Z</time>
      </trkpt>
      <trkpt lat="49.09347" lon="-0.80009">
        <ele>236.349</ele>
        <time>2019-11-13T10:44:25.001Z</time>
      </trkpt>
      <trkpt lat="49.09581" lon="-0.7963">
        <ele>212.811</ele>
        <time>2019-11-13T10:44:55.001Z</time>
      </trkpt>
      <trkpt lat="49.09841" lon="-0.79206">
        <ele>193.063</ele>
        <time>2019-11-13T10:45:28.001Z</time>
      </trkpt>
      <trkpt lat="49.10106" lon="-0.78768">
        <ele>173.354</ele>
        <time>2019-11-13T10:46:01.001Z</time>
      </trkpt>
      <trkpt lat="49.10376" lon="-0.78324">
        <ele>153.975</ele>
        <time>2019-11-13T10:46:34.001Z</time>
      </trkpt>
      <trkpt lat="49.10546" lon="-0.78036">
        <ele>151.134</ele>
        <time>2019-11-13T10:47:04.001Z</time>
      </trkpt>
      <trkpt lat="49.10609" lon="-0.77947">
        <ele>162.334</ele>
        <time>2019-11-13T10:47:37.001Z</time>
      </trkpt>
      <trkpt lat="49.10663" lon="-0.77852">
        <ele>163.495</ele>
        <time>2019-11-13T10:48:10.001Z</time>
      </trkpt>
      <trkpt lat="49.10741" lon="-0.7772">
        <ele>165.823</ele>
        <time>2019-11-13T10:48:43.001Z</time>
      </trkpt>
      <trkpt lat="49.10841" lon="-0.77558">
        <ele>162.202</ele>
        <time>2019-11-13T10:49:13.001Z</time>
      </trkpt>
      <trkpt lat="49.10971" lon="-0.77344">
        <ele>159.987</ele>
        <time>2019-11-13T10:49:46.001Z</time>
      </trkpt>
      <trkpt lat="49.11125" lon="-0.77091">
        <ele>155.961</ele>
        <time>2019-11-13T10:50:19.001Z</time>
      </trkpt>
      <trkpt lat="49.11305" lon="-0.768">
        <ele>151.295</ele>
        <time>2019-11-13T10:50:52.001Z</time>
      </trkpt>
      <trkpt lat="49.11475" lon="-0.76524">
        <ele>142.548</ele>
        <time>2019-11-13T10:51:22.001Z</time>
      </trkpt>
      <trkpt lat="49.1163" lon="-0.76264">
        <ele>134.481</ele>
        <time>2019-11-13T10:51:55.001Z</time>
      </trkpt>
      <trkpt lat="49.11847" lon="-0.75904">
        <ele>120.903</ele>
        <time>2019-11-13T10:52:28.001Z</time>
      </trkpt>
      <trkpt lat="49.12039" lon="-0.75594">
        <ele>118.809</ele>
        <time>2019-11-13T10:53:01.001Z</time>
      </trkpt>
      <trkpt lat="49.12176" lon="-0.7536">
        <ele>114.991</ele>
        <time>2019-11-13T10:53:31.001Z</time>
      </trkpt>
      <trkpt lat="49.12265" lon="-0.75212">
        <ele>120.831</ele>
        <time>2019-11-13T10:54:04.001Z</time>
      </trkpt>
      <trkpt lat="49.12332" lon="-0.75105">
        <ele>127.414</ele>
        <time>2019-11-13T10:54:37.001Z</time>
      </trkpt>
      <trkpt lat="49.12398" lon="-0.74996">
        <ele>128.882</ele>
        <time>2019-11-13T10:55:10.001Z</time>
      </trkpt>
      <trkpt lat="49.12454" lon="-0.74905">
        <ele>127.545</ele>
        <time>2019-11-13T10:55:40.001Z</time>
      </trkpt>
      <trkpt lat="49.12522" lon="-0.74792">
        <ele>130.656</ele>
        <time>2019-11-13T10:56:13.001Z</time>
      </trkpt>
      <trkpt lat="49.12596" lon="-0.7467">
        <ele>131.629</ele>
        <time>2019-11-13T10:56:46.001Z</time>
      </trkpt>
      <trkpt lat="49.12682" lon="-0.74527">
        <ele>132.731</ele>
        <time>2019-11-13T10:57:19.001Z</time>
      </trkpt>
      <trkpt lat="49.12831" lon="-0.7428">
        <ele>124.124</ele>
        <time>2019-11-13T10:57:52.001Z</time>
      </trkpt>
      <trkpt lat="49.13005" lon="-0.73998">
        <ele>114.683</ele>
        <time>2019-11-13T10:58:22.001Z</time>
      </trkpt>
      <trkpt lat="49.13148" lon="-0.73717">
        <ele>109.347</ele>
        <time>2019-11-13T10:58:55.001Z</time>
      </trkpt>
      <trkpt lat="49.13381" lon="-0.73666">
        <ele>104.29</ele>
        <time>2019-11-13T10:59:28.001Z</time>
      </trkpt>
      <trkpt lat="49.13489" lon="-0.73494">
        <ele>105.196</ele>
        <time>2019-11-13T11:00:01.001Z</time>
      </trkpt>
      <trkpt lat="49.13551" lon="-0.73331">
        <ele>109.308</ele>
        <time>2019-11-13T11:00:31.001Z</time>
      </trkpt>
      <trkpt lat="49.1362" lon="-0.73182">
        <ele>112.452</ele>
        <time>2019-11-13T11:01:04.001Z</time>
      </trkpt>
      <trkpt lat="49.13678" lon="-0.73081">
        <ele>114.459</ele>
        <time>2019-11-13T11:01:37.001Z</time>
      </trkpt>
      <trkpt lat="49.13741" lon="-0.73138">
        <ele>117.523</ele>
        <time>2019-11-13T11:02:10.001Z</time>
      </trkpt>
      <trkpt lat="49.13795" lon="-0.73218">
        <ele>118.245</ele>
        <time>2019-11-13T11:02:40.001Z</time>
      </trkpt>
      <trkpt lat="49.13852" lon="-0.73285">
        <ele>124.77</ele>
        <time>2019-11-13T11:03:13.001Z</time>
      </trkpt>
      <trkpt lat="49.13929" lon="-0.73363">
        <ele>130.476</ele>
        <time>2019-11-13T11:03:46.001Z</time>
      </trkpt>
      <trkpt lat="49.14062" lon="-0.73472">
        <ele>126.386</ele>
        <time>2019-11-13T11:04:19.001Z</time>
      </trkpt>
      <trkpt lat="49.14256" lon="-0.73555">
        <ele>122.647</ele>
        <time>2019-11-13T11:04:49.001Z</time>
      </trkpt>
      <trkpt lat="49.14419" lon="-0.73765">
        <ele>113.402</ele>
        <time>2019-11-13T11:05:22.001Z</time>
      </trkpt>
      <trkpt lat="49.14578" lon="-0.73863">
        <ele>112.774</ele>
        <time>2019-11-13T11:05:55.001Z</time>
      </trkpt>
      <trkpt lat="49.14799" lon="-0.73736">
        <ele>109.709</ele>
        <time>2019-11-13T11:06:28.001Z</time>
      </trkpt>
      <trkpt lat="49.14978" lon="-0.73632">
        <ele>109.706</ele>
        <time>2019-11-13T11:06:58.001Z</time>
      </trkpt>
      <trkpt lat="49.15168" lon="-0.73524">
        <ele>104.632</ele>
        <time>2019-11-13T11:07:31.001Z</time>
      </trkpt>
      <trkpt lat="49.15416" lon="-0.73386">
        <ele>98.746</ele>
        <time>2019-11-13T11:08:04.001Z</time>
      </trkpt>
      <trkpt lat="49.1566" lon="-0.73172">
        <ele>85.353</ele>
        <time>2019-11-13T11:08:37.001Z</time>
      </trkpt>
      <trkpt lat="49.1588" lon="-0.72912">
        <ele>76.809</ele>
        <time>2019-11-13T11:09:10.001Z</time>
      </trkpt>
      <trkpt lat="49.16093" lon="-0.72785">
        <ele>74.505</ele>
        <time>2019-11-13T11:09:40.001Z</time>
      </trkpt>
      <trkpt lat="49.16289" lon="-0.72768">
        <ele>75.478</ele>
        <time>2019-11-13T11:10:13.001Z</time>
      </trkpt>
      <trkpt lat="49.16439" lon="-0.72761">
        <ele>76.524</ele>
        <time>2019-11-13T11:10:46.001Z</time>
      </trkpt>
      <trkpt lat="49.16533" lon="-0.72755">
        <ele>81.795</ele>
        <time>2019-11-13T11:11:19.001Z</time>
      </trkpt>
      <trkpt lat="49.1662" lon="-0.72752">
        <ele>84.815</ele>
        <time>2019-11-13T11:11:49.001Z</time>
      </trkpt>
      <trkpt lat="49.16725" lon="-0.72744">
        <ele>84.2</ele>
        <time>2019-11-13T11:12:22.001Z</time>
      </trkpt>
      <trkpt lat="49.16831" lon="-0.72737">
        <ele>85.204</ele>
        <time>2019-11-13T11:12:55.001Z</time>
      </trkpt>
      <trkpt lat="49.1693" lon="-0.72726">
        <ele>85.165</ele>
        <time>2019-11-13T11:13:28.001Z</time>
      </trkpt>
      <trkpt lat="49.17022" lon="-0.72704">
        <ele>88.071</ele>
        <time>2019-11-13T11:13:58.001Z</time>
      </trkpt>
      <trkpt lat="49.17123" lon="-0.72675">
        <ele>96.257</ele>
        <time>2019-11-13T11:14:31.001Z</time>
      </trkpt>
      <trkpt lat="49.17226" lon="-0.7265">
        <ele>95.435</ele>
        <time>2019-11-13T11:15:04.001Z</time>
      </trkpt>
      <trkpt lat="49.17327" lon="-0.7262">
        <ele>96.107</ele>
        <time>2019-11-13T11:15:37.001Z</time>
      </trkpt>
      <trkpt lat="49.17431" lon="-0.72541">
        <ele>100.99</ele>
        <time>2019-11-13T11:16:07.001Z</time>
      </trkpt>
      <trkpt lat="49.17598" lon="-0.72418">
        <ele>101.684</ele>
        <time>2019-11-13T11:16:40.001Z</time>
      </trkpt>
      <trkpt lat="49.17872" lon="-0.72364">
        <ele>88.818</ele>
        <time>2019-11-13T11:17:13.001Z</time>
      </trkpt>
      <trkpt lat="49.18087" lon="-0.72327">
        <ele>85.317</ele>
        <time>2019-11-13T11:17:46.001Z</time>
      </trkpt>
      <trkpt lat="49.18167" lon="-0.72344">
        <ele>89.765</ele>
        <time>2019-11-13T11:18:16Z</time>
      </trkpt>
      <trkpt lat="49.18236" lon="-0.72344">
        <ele>94.878</ele>
        <time>2019-11-13T11:18:49.001Z</time>
      </trkpt>
      <trkpt lat="49.18364" lon="-0.72335">
        <ele>97.845</ele>
        <time>2019-11-13T11:19:22.001Z</time>
      </trkpt>
      <trkpt lat="49.18521" lon="-0.72293">
        <ele>91.087</ele>
        <time>2019-11-13T11:19:55.001Z</time>
      </trkpt>
      <trkpt lat="49.18739" lon="-0.72317">
        <ele>87.952</ele>
        <time>2019-11-13T11:20:28.001Z</time>
      </trkpt>
      <trkpt lat="49.18927" lon="-0.72288">
        <ele>85.994</ele>
        <time>2019-11-13T11:20:58.001Z</time>
      </trkpt>
      <trkpt lat="49.19147" lon="-0.72124">
        <ele>81.88</ele>
        <time>2019-11-13T11:21:31.001Z</time>
      </trkpt>
      <trkpt lat="49.19398" lon="-0.72036">
        <ele>77.179</ele>
        <time>2019-11-13T11:22:04.001Z</time>
      </trkpt>
      <trkpt lat="49.19712" lon="-0.72076">
        <ele>61.577</ele>
        <time>2019-11-13T11:22:37.001Z</time>
      </trkpt>
      <trkpt lat="49.19867" lon="-0.72084">
        <ele>68.982</ele>
        <time>2019-11-13T11:23:07.001Z</time>
      </trkpt>
      <trkpt lat="49.19985" lon="-0.72127">
        <ele>74.411</ele>
        <time>2019-11-13T11:23:40.001Z</time>
      </trkpt>
      <trkpt lat="49.20076" lon="-0.72125">
        <ele>75.124</ele>
        <time>2019-11-13T11:24:13.001Z</time>
      </trkpt>
      <trkpt lat="49.20183" lon="-0.72101">
        <ele>77.662</ele>
        <time>2019-11-13T11:24:46.001Z</time>
      </trkpt>
      <trkpt lat="49.20337" lon="-0.72009">
        <ele>73.879</ele>
        <time>2019-11-13T11:25:16Z</time>
      </trkpt>
      <trkpt lat="49.20491" lon="-0.72039">
        <ele>73.316</ele>
        <time>2019-11-13T11:25:49.001Z</time>
      </trkpt>
      <trkpt lat="49.2063" lon="-0.71919">
        <ele>74.732</ele>
        <time>2019-11-13T11:26:22.001Z</time>
      </trkpt>
      <trkpt lat="49.20788" lon="-0.7179">
        <ele>76.985</ele>
        <time>2019-11-13T11:26:55.001Z</time>
      </trkpt>
      <trkpt lat="49.20947" lon="-0.71697">
        <ele>75.297</ele>
        <time>2019-11-13T11:27:25.001Z</time>
      </trkpt>
      <trkpt lat="49.21141" lon="-0.71544">
        <ele>73.862</ele>
        <time>2019-11-13T11:27:58.001Z</time>
      </trkpt>
      <trkpt lat="49.21384" lon="-0.71352">
        <ele>74.672</ele>
        <time>2019-11-13T11:28:31.001Z</time>
      </trkpt>
      <trkpt lat="49.21611" lon="-0.71167">
        <ele>65.374</ele>
        <time>2019-11-13T11:29:04.001Z</time>
      </trkpt>
      <trkpt lat="49.21784" lon="-0.71033">
        <ele>66.241</ele>
        <time>2019-11-13T11:29:34.001Z</time>
      </trkpt>
      <trkpt lat="49.21977" lon="-0.71048">
        <ele>65.811</ele>
        <time>2019-11-13T11:30:07.001Z</time>
      </trkpt>
      <trkpt lat="49.22157" lon="-0.70989">
        <ele>69.805</ele>
        <time>2019-11-13T11:30:40.001Z</time>
      </trkpt>
      <trkpt lat="49.22343" lon="-0.70769">
        <ele>64.362</ele>
        <time>2019-11-13T11:31:13.001Z</time>
      </trkpt>
      <trkpt lat="49.22499" lon="-0.70634">
        <ele>54.286</ele>
        <time>2019-11-13T11:31:46.001Z</time>
      </trkpt>
      <trkpt lat="49.22676" lon="-0.70653">
        <ele>55.962</ele>
        <time>2019-11-13T11:32:16Z</time>
      </trkpt>
      <trkpt lat="49.22855" lon="-0.70605">
        <ele>58.686</ele>
        <time>2019-11-13T11:32:49.001Z</time>
      </trkpt>
      <trkpt lat="49.23055" lon="-0.70528">
        <ele>53.569</ele>
        <time>2019-11-13T11:33:22.001Z</time>
      </trkpt>
      <trkpt lat="49.23238" lon="-0.7044">
        <ele>51.513</ele>
        <time>2019-11-13T11:33:55.001Z</time>
      </trkpt>
      <trkpt lat="49.23389" lon="-0.70318">
        <ele>52.679</ele>
        <time>2019-11-13T11:34:25.001Z</time>
      </trkpt>
      <trkpt lat="49.23556" lon="-0.70299">
        <ele>52.987</ele>
        <time>2019-11-13T11:34:58.001Z</time>
      </trkpt>
      <trkpt lat="49.23664" lon="-0.70302">
        <ele>58.945</ele>
        <time>2019-11-13T11:35:31.001Z</time>
      </trkpt>
      <trkpt lat="49.23738" lon="-0.7031">
        <ele>66.547</ele>
        <time>2019-11-13T11:36:04.001Z</time>
      </trkpt>
      <trkpt lat="49.2382" lon="-0.70317">
        <ele>65.301</ele>
        <time>2019-11-13T11:36:34.001Z</time>
      </trkpt>
      <trkpt lat="49.23931" lon="-0.70347">
        <ele>64.096</ele>
        <time>2019-11-13T11:37:07.001Z</time>
      </trkpt>
      <trkpt lat="49.24068" lon="-0.7041">
        <ele>61.549</ele>
        <time>2019-11-13T11:37:40.001Z</time>
      </trkpt>
      <trkpt lat="49.24253" lon="-0.70506">
        <ele>60.38</ele>
        <time>2019-11-13T11:38:13.001Z</time>
      </trkpt>
      <trkpt lat="49.2447" lon="-0.70653">
        <ele>58.52</ele>
        <time>2019-11-13T11:38:43.001Z</time>
      </trkpt>
      <trkpt lat="49.24701" lon="-0.70808">
        <ele>50.888</ele>
        <time>2019-11-13T11:39:16Z</time>
      </trkpt>
      <trkpt lat="49.24886" lon="-0.70882">
        <ele>53.347</ele>
        <time>2019-11-13T11:39:49.001Z</time>
      </trkpt>
      <trkpt lat="49.25004" lon="-0.70877">
        <ele>53.283</ele>
        <time>2019-11-13T11:40:22.001Z</time>
      </trkpt>
      <trkpt lat="49.25094" lon="-0.70872">
        <ele>53.136</ele>
        <time>2019-11-13T11:40:52.001Z</time>
      </trkpt>
      <trkpt lat="49.25183" lon="-0.70888">
        <ele>59.774</ele>
        <time>2019-11-13T11:41:25.001Z</time>
      </trkpt>
      <trkpt lat="49.25252" lon="-0.7092">
        <ele>60.96</ele>
        <time>2019-11-13T11:42:16Z</time>
      </trkpt>
      <trkpt lat="49.25256" lon="-0.7093">
        <ele>60.466</ele>
        <time>2019-11-13T11:46:43.001Z</time>
      </trkpt>
      <trkpt lat="49.25421" lon="-0.70957">
        <ele>59.841</ele>
        <time>2019-11-13T11:47:16Z</time>
      </trkpt>
      <trkpt lat="49.25499" lon="-0.7093">
        <ele>53.805</ele>
        <time>2019-11-13T11:47:46.001Z</time>
      </trkpt>
      <trkpt lat="49.25592" lon="-0.70905">
        <ele>60.855</ele>
        <time>2019-11-13T11:48:19.001Z</time>
      </trkpt>
      <trkpt lat="49.25721" lon="-0.70859">
        <ele>61.01</ele>
        <time>2019-11-13T11:48:52.001Z</time>
      </trkpt>
      <trkpt lat="49.25835" lon="-0.70869">
        <ele>64.63</ele>
        <time>2019-11-13T11:49:25.001Z</time>
      </trkpt>
      <trkpt lat="49.25924" lon="-0.70888">
        <ele>66.721</ele>
        <time>2019-11-13T11:49:55.001Z</time>
      </trkpt>
      <trkpt lat="49.26043" lon="-0.70916">
        <ele>70.058</ele>
        <time>2019-11-13T11:50:28.001Z</time>
      </trkpt>
      <trkpt lat="49.26231" lon="-0.70937">
        <ele>64.32</ele>
        <time>2019-11-13T11:51:01.001Z</time>
      </trkpt>
      <trkpt lat="49.26422" lon="-0.70999">
        <ele>61.829</ele>
        <time>2019-11-13T11:51:34.001Z</time>
      </trkpt>
      <trkpt lat="49.26593" lon="-0.70941">
        <ele>62.404</ele>
        <time>2019-11-13T11:52:04.001Z</time>
      </trkpt>
      <trkpt lat="49.26729" lon="-0.70943">
        <ele>60.827</ele>
        <time>2019-11-13T11:52:37.001Z</time>
      </trkpt>
      <trkpt lat="49.2692" lon="-0.70822">
        <ele>61.972</ele>
        <time>2019-11-13T11:53:10.001Z</time>
      </trkpt>
      <trkpt lat="49.27101" lon="-0.70778">
        <ele>51.243</ele>
        <time>2019-11-13T11:53:43.001Z</time>
      </trkpt>
      <trkpt lat="49.2717" lon="-0.70826">
        <ele>51.257</ele>
        <time>2019-11-13T11:54:13.001Z</time>
      </trkpt>
      <trkpt lat="49.27322" lon="-0.70725">
        <ele>62.406</ele>
        <time>2019-11-13T11:54:46.001Z</time>
      </trkpt>
      <trkpt lat="49.27451" lon="-0.70692">
        <ele>61.441</ele>
        <time>2019-11-13T11:55:19.001Z</time>
      </trkpt>
      <trkpt lat="49.27505" lon="-0.70832">
        <ele>60.986</ele>
        <time>2019-11-13T11:55:52.001Z</time>
      </trkpt>
      <trkpt lat="49.27572" lon="-0.70883">
        <ele>61.569</ele>
        <time>2019-11-13T11:56:25.001Z</time>
      </trkpt>
      <trkpt lat="49.27676" lon="-0.70937">
        <ele>72.329</ele>
        <time>2019-11-13T11:56:58.001Z</time>
      </trkpt>
      <trkpt lat="49.27713" lon="-0.71132">
        <ele>63.802</ele>
        <time>2019-11-13T11:57:31.001Z</time>
      </trkpt>
      <trkpt lat="49.27784" lon="-0.71235">
        <ele>63.507</ele>
        <time>2019-11-13T11:58:04.001Z</time>
      </trkpt>
      <trkpt lat="49.27919" lon="-0.71161">
        <ele>63.656</ele>
        <time>2019-11-13T11:58:37.001Z</time>
      </trkpt>
      <trkpt lat="49.28028" lon="-0.71232">
        <ele>61.158</ele>
        <time>2019-11-13T11:59:07.001Z</time>
      </trkpt>
      <trkpt lat="49.28096" lon="-0.713">
        <ele>66.369</ele>
        <time>2019-11-13T11:59:40.001Z</time>
      </trkpt>
      <trkpt lat="49.28087" lon="-0.71263">
        <ele>62.905</ele>
        <time>2019-11-13T12:01:40.001Z</time>
      </trkpt>
      <trkpt lat="49.28086" lon="-0.7126">
        <ele>54.222</ele>
        <time>2019-11-13T12:04:34.001Z</time>
      </trkpt>
      <trkpt lat="49.28053" lon="-0.71283">
        <ele>59.172</ele>
        <time>2019-11-13T12:37:07.001Z</time>
      </trkpt>
      <trkpt lat="49.28004" lon="-0.71174">
        <ele>61.571</ele>
        <time>2019-11-13T12:38:01.001Z</time>
      </trkpt>
      <trkpt lat="49.27969" lon="-0.71027">
        <ele>57.893</ele>
        <time>2019-11-13T12:38:46.001Z</time>
      </trkpt>
      <trkpt lat="49.27901" lon="-0.70824">
        <ele>58.778</ele>
        <time>2019-11-13T12:39:19.001Z</time>
      </trkpt>
      <trkpt lat="49.27878" lon="-0.70733">
        <ele>58.738</ele>
        <time>2019-11-13T12:39:49.001Z</time>
      </trkpt>
      <trkpt lat="49.27822" lon="-0.7058">
        <ele>61.639</ele>
        <time>2019-11-13T12:40:28.001Z</time>
      </trkpt>
      <trkpt lat="49.27761" lon="-0.70371">
        <ele>53.735</ele>
        <time>2019-11-13T12:41:01.001Z</time>
      </trkpt>
      <trkpt lat="49.2771" lon="-0.70188">
        <ele>49.562</ele>
        <time>2019-11-13T12:41:37.001Z</time>
      </trkpt>
      <trkpt lat="49.27668" lon="-0.70059">
        <ele>44.992</ele>
        <time>2019-11-13T12:42:07.001Z</time>
      </trkpt>
      <trkpt lat="49.2762" lon="-0.69902">
        <ele>48.523</ele>
        <time>2019-11-13T12:42:40.001Z</time>
      </trkpt>
      <trkpt lat="49.276" lon="-0.69803">
        <ele>54.069</ele>
        <time>2019-11-13T12:43:16Z</time>
      </trkpt>
      <trkpt lat="49.27702" lon="-0.69715">
        <ele>57.393</ele>
        <time>2019-11-13T12:43:49.001Z</time>
      </trkpt>
      <trkpt lat="49.27748" lon="-0.6967">
        <ele>53.739</ele>
        <time>2019-11-13T12:44:22.001Z</time>
      </trkpt>
      <trkpt lat="49.27821" lon="-0.69593">
        <ele>57.806</ele>
        <time>2019-11-13T12:44:55.001Z</time>
      </trkpt>
      <trkpt lat="49.27893" lon="-0.69498">
        <ele>53.748</ele>
        <time>2019-11-13T12:45:28.001Z</time>
      </trkpt>
      <trkpt lat="49.27955" lon="-0.69415">
        <ele>54.46</ele>
        <time>2019-11-13T12:46:01.001Z</time>
      </trkpt>
      <trkpt lat="49.28046" lon="-0.69292">
        <ele>56.537</ele>
        <time>2019-11-13T12:46:34.001Z</time>
      </trkpt>
      <trkpt lat="49.28149" lon="-0.69262">
        <ele>58.702</ele>
        <time>2019-11-13T12:47:04.001Z</time>
      </trkpt>
      <trkpt lat="49.2832" lon="-0.69184">
        <ele>47.745</ele>
        <time>2019-11-13T12:47:37.001Z</time>
      </trkpt>
      <trkpt lat="49.2844" lon="-0.69235">
        <ele>44.417</ele>
        <time>2019-11-13T12:48:13.001Z</time>
      </trkpt>
      <trkpt lat="49.28667" lon="-0.69185">
        <ele>43.621</ele>
        <time>2019-11-13T12:48:46.001Z</time>
      </trkpt>
      <trkpt lat="49.28818" lon="-0.69131">
        <ele>41.518</ele>
        <time>2019-11-13T12:49:16Z</time>
      </trkpt>
      <trkpt lat="49.28977" lon="-0.69051">
        <ele>42.247</ele>
        <time>2019-11-13T12:49:49.001Z</time>
      </trkpt>
      <trkpt lat="49.29138" lon="-0.68999">
        <ele>43.15</ele>
        <time>2019-11-13T12:50:22.001Z</time>
      </trkpt>
      <trkpt lat="49.29312" lon="-0.68995">
        <ele>42.728</ele>
        <time>2019-11-13T12:50:55.001Z</time>
      </trkpt>
      <trkpt lat="49.29485" lon="-0.6897">
        <ele>41.727</ele>
        <time>2019-11-13T12:51:25.001Z</time>
      </trkpt>
      <trkpt lat="49.2966" lon="-0.6885">
        <ele>38.401</ele>
        <time>2019-11-13T12:51:58.001Z</time>
      </trkpt>
      <trkpt lat="49.29773" lon="-0.68723">
        <ele>42.183</ele>
        <time>2019-11-13T12:52:31.001Z</time>
      </trkpt>
      <trkpt lat="49.29876" lon="-0.6862">
        <ele>47.383</ele>
        <time>2019-11-13T12:53:04.001Z</time>
      </trkpt>
      <trkpt lat="49.29953" lon="-0.6856">
        <ele>51.183</ele>
        <time>2019-11-13T12:53:34.001Z</time>
      </trkpt>
      <trkpt lat="49.30031" lon="-0.68508">
        <ele>59.957</ele>
        <time>2019-11-13T12:54:07.001Z</time>
      </trkpt>
      <trkpt lat="49.30165" lon="-0.68376">
        <ele>53.175</ele>
        <time>2019-11-13T12:54:40.001Z</time>
      </trkpt>
      <trkpt lat="49.30312" lon="-0.68182">
        <ele>49.426</ele>
        <time>2019-11-13T12:55:13.001Z</time>
      </trkpt>
      <trkpt lat="49.30469" lon="-0.68023">
        <ele>47.631</ele>
        <time>2019-11-13T12:55:43.001Z</time>
      </trkpt>
      <trkpt lat="49.30604" lon="-0.67789">
        <ele>45.922</ele>
        <time>2019-11-13T12:56:16Z</time>
      </trkpt>
      <trkpt lat="49.30712" lon="-0.67631">
        <ele>49.597</ele>
        <time>2019-11-13T12:56:49.001Z</time>
      </trkpt>
      <trkpt lat="49.30874" lon="-0.67468">
        <ele>44.817</ele>
        <time>2019-11-13T12:57:22.001Z</time>
      </trkpt>
      <trkpt lat="49.31019" lon="-0.67289">
        <ele>46.485</ele>
        <time>2019-11-13T12:57:55.001Z</time>
      </trkpt>
      <trkpt lat="49.31125" lon="-0.67131">
        <ele>50.311</ele>
        <time>2019-11-13T12:58:25.001Z</time>
      </trkpt>
      <trkpt lat="49.31236" lon="-0.66983">
        <ele>52.407</ele>
        <time>2019-11-13T12:58:58.001Z</time>
      </trkpt>
      <trkpt lat="49.31348" lon="-0.66896">
        <ele>55.703</ele>
        <time>2019-11-13T12:59:31.001Z</time>
      </trkpt>
      <trkpt lat="49.31451" lon="-0.66732">
        <ele>53.635</ele>
        <time>2019-11-13T13:00:04.001Z</time>
      </trkpt>
      <trkpt lat="49.31556" lon="-0.66574">
        <ele>55.247</ele>
        <time>2019-11-13T13:00:34.001Z</time>
      </trkpt>
      <trkpt lat="49.31664" lon="-0.66411">
        <ele>57.647</ele>
        <time>2019-11-13T13:01:07.001Z</time>
      </trkpt>
      <trkpt lat="49.31779" lon="-0.66243">
        <ele>58.172</ele>
        <time>2019-11-13T13:01:40.001Z</time>
      </trkpt>
      <trkpt lat="49.31881" lon="-0.66096">
        <ele>62.991</ele>
        <time>2019-11-13T13:02:13.001Z</time>
      </trkpt>
      <trkpt lat="49.31964" lon="-0.6598">
        <ele>67</ele>
        <time>2019-11-13T13:02:43.001Z</time>
      </trkpt>
      <trkpt lat="49.32069" lon="-0.65895">
        <ele>70.088</ele>
        <time>2019-11-13T13:03:16Z</time>
      </trkpt>
      <trkpt lat="49.3214" lon="-0.65749">
        <ele>66.578</ele>
        <time>2019-11-13T13:03:49.001Z</time>
      </trkpt>
      <trkpt lat="49.32207" lon="-0.65446">
        <ele>60.907</ele>
        <time>2019-11-13T13:04:22.001Z</time>
      </trkpt>
      <trkpt lat="49.32302" lon="-0.65147">
        <ele>56.573</ele>
        <time>2019-11-13T13:04:52.001Z</time>
      </trkpt>
      <trkpt lat="49.3245" lon="-0.64948">
        <ele>59.343</ele>
        <time>2019-11-13T13:05:25.001Z</time>
      </trkpt>
      <trkpt lat="49.32609" lon="-0.64794">
        <ele>61.69</ele>
        <time>2019-11-13T13:05:58.001Z</time>
      </trkpt>
      <trkpt lat="49.32742" lon="-0.6458">
        <ele>57.688</ele>
        <time>2019-11-13T13:06:31.001Z</time>
      </trkpt>
      <trkpt lat="49.32862" lon="-0.64389">
        <ele>58.029</ele>
        <time>2019-11-13T13:07:01.001Z</time>
      </trkpt>
      <trkpt lat="49.32979" lon="-0.64183">
        <ele>61.059</ele>
        <time>2019-11-13T13:07:34.001Z</time>
      </trkpt>
      <trkpt lat="49.33121" lon="-0.63933">
        <ele>58.609</ele>
        <time>2019-11-13T13:08:07.001Z</time>
      </trkpt>
      <trkpt lat="49.33261" lon="-0.63729">
        <ele>56.672</ele>
        <time>2019-11-13T13:08:40.001Z</time>
      </trkpt>
      <trkpt lat="49.33455" lon="-0.63555">
        <ele>56.183</ele>
        <time>2019-11-13T13:09:13.001Z</time>
      </trkpt>
      <trkpt lat="49.33629" lon="-0.63327">
        <ele>45.962</ele>
        <time>2019-11-13T13:09:43.001Z</time>
      </trkpt>
      <trkpt lat="49.33824" lon="-0.63075">
        <ele>21.503</ele>
        <time>2019-11-13T13:10:16Z</time>
      </trkpt>
      <trkpt lat="49.33976" lon="-0.62837">
        <ele>1.919</ele>
        <time>2019-11-13T13:10:49.001Z</time>
      </trkpt>
      <trkpt lat="49.33975" lon="-0.62656">
        <ele>0.346</ele>
        <time>2019-11-13T13:11:22.001Z</time>
      </trkpt>
      <trkpt lat="49.33974" lon="-0.62452">
        <ele>7</ele>
        <time>2019-11-13T13:11:52.001Z</time>
      </trkpt>
      <trkpt lat="49.33919" lon="-0.62367">
        <ele>4.949</ele>
        <time>2019-11-13T13:12:25.001Z</time>
      </trkpt>
      <trkpt lat="49.33842" lon="-0.62397">
        <ele>14.544</ele>
        <time>2019-11-13T13:12:58.001Z</time>
      </trkpt>
      <trkpt lat="49.33784" lon="-0.62413">
        <ele>17.371</ele>
        <time>2019-11-13T13:13:31.001Z</time>
      </trkpt>
      <trkpt lat="49.33755" lon="-0.62298">
        <ele>23.571</ele>
        <time>2019-11-13T13:14:07.001Z</time>
      </trkpt>
      <trkpt lat="49.33751" lon="-0.62102">
        <ele>16.239</ele>
        <time>2019-11-13T13:14:40.001Z</time>
      </trkpt>
      <trkpt lat="49.33697" lon="-0.62102">
        <ele>19.708</ele>
        <time>2019-11-13T13:15:13.001Z</time>
      </trkpt>
      <trkpt lat="49.33629" lon="-0.62089">
        <ele>29.086</ele>
        <time>2019-11-13T13:15:58.001Z</time>
      </trkpt>
      <trkpt lat="49.33579" lon="-0.62035">
        <ele>36.071</ele>
        <time>2019-11-13T13:16:37.001Z</time>
      </trkpt>
      <trkpt lat="49.33545" lon="-0.61936">
        <ele>40.727</ele>
        <time>2019-11-13T13:17:25.001Z</time>
      </trkpt>
      <trkpt lat="49.33574" lon="-0.61859">
        <ele>52.67</ele>
        <time>2019-11-13T13:18:01.001Z</time>
      </trkpt>
      <trkpt lat="49.33635" lon="-0.61816">
        <ele>48.071</ele>
        <time>2019-11-13T13:18:40.001Z</time>
      </trkpt>
      <trkpt lat="49.33705" lon="-0.618">
        <ele>47.414</ele>
        <time>2019-11-13T13:19:10.001Z</time>
      </trkpt>
      <trkpt lat="49.3381" lon="-0.61772">
        <ele>48.283</ele>
        <time>2019-11-13T13:19:43.001Z</time>
      </trkpt>
      <trkpt lat="49.33897" lon="-0.61624">
        <ele>46.699</ele>
        <time>2019-11-13T13:20:16Z</time>
      </trkpt>
      <trkpt lat="49.33924" lon="-0.61534">
        <ele>48.947</ele>
        <time>2019-11-13T13:21:01.001Z</time>
      </trkpt>
      <trkpt lat="49.33891" lon="-0.61478">
        <ele>48.344</ele>
        <time>2019-11-13T13:34:55.001Z</time>
      </trkpt>
      <trkpt lat="49.33879" lon="-0.61292">
        <ele>44.397</ele>
        <time>2019-11-13T13:35:25.001Z</time>
      </trkpt>
      <trkpt lat="49.33876" lon="-0.61017">
        <ele>38.875</ele>
        <time>2019-11-13T13:35:58.001Z</time>
      </trkpt>
      <trkpt lat="49.33835" lon="-0.60577">
        <ele>22.115</ele>
        <time>2019-11-13T13:36:31.001Z</time>
      </trkpt>
      <trkpt lat="49.33766" lon="-0.60174">
        <ele>4.7</ele>
        <time>2019-11-13T13:37:04.001Z</time>
      </trkpt>
      <trkpt lat="49.33833" lon="-0.59836">
        <ele>4</ele>
        <time>2019-11-13T13:37:34.001Z</time>
      </trkpt>
      <trkpt lat="49.33949" lon="-0.59594">
        <ele>4.4</ele>
        <time>2019-11-13T13:38:07.001Z</time>
      </trkpt>
      <trkpt lat="49.33983" lon="-0.59311">
        <ele>4.7</ele>
        <time>2019-11-13T13:38:40.001Z</time>
      </trkpt>
      <trkpt lat="49.33979" lon="-0.59039">
        <ele>5.7</ele>
        <time>2019-11-13T13:39:13.001Z</time>
      </trkpt>
      <trkpt lat="49.33973" lon="-0.58812">
        <ele>5.8</ele>
        <time>2019-11-13T13:39:43.001Z</time>
      </trkpt>
      <trkpt lat="49.33966" lon="-0.58556">
        <ele>3.8</ele>
        <time>2019-11-13T13:40:16Z</time>
      </trkpt>
      <trkpt lat="49.33939" lon="-0.58287">
        <ele>3.1</ele>
        <time>2019-11-13T13:40:49.001Z</time>
      </trkpt>
      <trkpt lat="49.33916" lon="-0.58043">
        <ele>4.6</ele>
        <time>2019-11-13T13:41:22.001Z</time>
      </trkpt>
      <trkpt lat="49.33898" lon="-0.5784">
        <ele>0.497</ele>
        <time>2019-11-13T13:41:52.001Z</time>
      </trkpt>
      <trkpt lat="49.33879" lon="-0.57627">
        <ele>8.188</ele>
        <time>2019-11-13T13:42:25.001Z</time>
      </trkpt>
      <trkpt lat="49.33857" lon="-0.57399">
        <ele>12.501</ele>
        <time>2019-11-13T13:42:58.001Z</time>
      </trkpt>
      <trkpt lat="49.3383" lon="-0.57131">
        <ele>5.2</ele>
        <time>2019-11-13T13:43:31.001Z</time>
      </trkpt>
      <trkpt lat="49.33809" lon="-0.56903">
        <ele>5.3</ele>
        <time>2019-11-13T13:44:01.001Z</time>
      </trkpt>
      <trkpt lat="49.33788" lon="-0.56656">
        <ele>3.3</ele>
        <time>2019-11-13T13:44:34.001Z</time>
      </trkpt>
      <trkpt lat="49.33777" lon="-0.56416">
        <ele>4.4</ele>
        <time>2019-11-13T13:45:07.001Z</time>
      </trkpt>
      <trkpt lat="49.33782" lon="-0.562">
        <ele>7.267</ele>
        <time>2019-11-13T13:45:40.001Z</time>
      </trkpt>
      <trkpt lat="49.33789" lon="-0.55988">
        <ele>2.954</ele>
        <time>2019-11-13T13:46:13.001Z</time>
      </trkpt>
      <trkpt lat="49.33803" lon="-0.55812">
        <ele>2.069</ele>
        <time>2019-11-13T13:46:43.001Z</time>
      </trkpt>
      <trkpt lat="49.33823" lon="-0.55624">
        <ele>4.594</ele>
        <time>2019-11-13T13:47:16Z</time>
      </trkpt>
      <trkpt lat="49.33844" lon="-0.55433">
        <ele>4.847</ele>
        <time>2019-11-13T13:47:49.001Z</time>
      </trkpt>
      <trkpt lat="49.33868" lon="-0.55226">
        <ele>7.318</ele>
        <time>2019-11-13T13:48:22.001Z</time>
      </trkpt>
      <trkpt lat="49.33888" lon="-0.55044">
        <ele>8.797</ele>
        <time>2019-11-13T13:48:52.001Z</time>
      </trkpt>
      <trkpt lat="49.33911" lon="-0.54847">
        <ele>12.306</ele>
        <time>2019-11-13T13:49:25.001Z</time>
      </trkpt>
      <trkpt lat="49.33932" lon="-0.54644">
        <ele>10.795</ele>
        <time>2019-11-13T13:49:58.001Z</time>
      </trkpt>
      <trkpt lat="49.33955" lon="-0.54431">
        <ele>12.397</ele>
        <time>2019-11-13T13:50:31.001Z</time>
      </trkpt>
      <trkpt lat="49.33977" lon="-0.5424">
        <ele>13.267</ele>
        <time>2019-11-13T13:51:01.001Z</time>
      </trkpt>
      <trkpt lat="49.33999" lon="-0.54037">
        <ele>12.999</ele>
        <time>2019-11-13T13:51:34.001Z</time>
      </trkpt>
      <trkpt lat="49.3402" lon="-0.53837">
        <ele>14.983</ele>
        <time>2019-11-13T13:52:07.001Z</time>
      </trkpt>
      <trkpt lat="49.34043" lon="-0.53639">
        <ele>16.462</ele>
        <time>2019-11-13T13:52:40.001Z</time>
      </trkpt>
      <trkpt lat="49.34064" lon="-0.53448">
        <ele>17.654</ele>
        <time>2019-11-13T13:53:10.001Z</time>
      </trkpt>
      <trkpt lat="49.34091" lon="-0.5321">
        <ele>18.779</ele>
        <time>2019-11-13T13:53:43.001Z</time>
      </trkpt>
      <trkpt lat="49.34131" lon="-0.52935">
        <ele>16.789</ele>
        <time>2019-11-13T13:54:16Z</time>
      </trkpt>
      <trkpt lat="49.34182" lon="-0.52642">
        <ele>13.614</ele>
        <time>2019-11-13T13:54:49.001Z</time>
      </trkpt>
      <trkpt lat="49.34244" lon="-0.52295">
        <ele>6.529</ele>
        <time>2019-11-13T13:55:19.001Z</time>
      </trkpt>
      <trkpt lat="49.34299" lon="-0.51972">
        <ele>7.5</ele>
        <time>2019-11-13T13:55:52.001Z</time>
      </trkpt>
      <trkpt lat="49.34342" lon="-0.51718">
        <ele>1.38</ele>
        <time>2019-11-13T13:56:25.001Z</time>
      </trkpt>
      <trkpt lat="49.34322" lon="-0.51497">
        <ele>6.8</ele>
        <time>2019-11-13T13:56:58.001Z</time>
      </trkpt>
      <trkpt lat="49.34299" lon="-0.51226">
        <ele>0.608</ele>
        <time>2019-11-13T13:57:31.001Z</time>
      </trkpt>
      <trkpt lat="49.34276" lon="-0.50983">
        <ele>5.9</ele>
        <time>2019-11-13T13:58:01.001Z</time>
      </trkpt>
      <trkpt lat="49.34259" lon="-0.5073">
        <ele>5</ele>
        <time>2019-11-13T13:58:34.001Z</time>
      </trkpt>
      <trkpt lat="49.34234" lon="-0.50468">
        <ele>3.6</ele>
        <time>2019-11-13T13:59:07.001Z</time>
      </trkpt>
      <trkpt lat="49.3421" lon="-0.50201">
        <ele>0.452</ele>
        <time>2019-11-13T13:59:40.001Z</time>
      </trkpt>
      <trkpt lat="49.34177" lon="-0.49965">
        <ele>1</ele>
        <time>2019-11-13T14:00:10.001Z</time>
      </trkpt>
      <trkpt lat="49.34139" lon="-0.49714">
        <ele>0.134</ele>
        <time>2019-11-13T14:00:43.001Z</time>
      </trkpt>
      <trkpt lat="49.34099" lon="-0.49461">
        <ele>3.2</ele>
        <time>2019-11-13T14:01:16Z</time>
      </trkpt>
      <trkpt lat="49.34052" lon="-0.49215">
        <ele>3.1</ele>
        <time>2019-11-13T14:01:49.001Z</time>
      </trkpt>
      <trkpt lat="49.34006" lon="-0.48996">
        <ele>1.1</ele>
        <time>2019-11-13T14:02:19.001Z</time>
      </trkpt>
      <trkpt lat="49.33957" lon="-0.48758">
        <ele>1.8</ele>
        <time>2019-11-13T14:02:52.001Z</time>
      </trkpt>
      <trkpt lat="49.33901" lon="-0.48509">
        <ele>1.7</ele>
        <time>2019-11-13T14:03:25.001Z</time>
      </trkpt>
      <trkpt lat="49.33837" lon="-0.48275">
        <ele>1.4</ele>
        <time>2019-11-13T14:03:58.001Z</time>
      </trkpt>
      <trkpt lat="49.33781" lon="-0.48076">
        <ele>1.6</ele>
        <time>2019-11-13T14:04:28.001Z</time>
      </trkpt>
      <trkpt lat="49.33719" lon="-0.47854">
        <ele>1</ele>
        <time>2019-11-13T14:05:01.001Z</time>
      </trkpt>
      <trkpt lat="49.33658" lon="-0.47639">
        <ele>1.5</ele>
        <time>2019-11-13T14:05:34.001Z</time>
      </trkpt>
      <trkpt lat="49.33596" lon="-0.47428">
        <ele>2.1</ele>
        <time>2019-11-13T14:06:07.001Z</time>
      </trkpt>
      <trkpt lat="49.33541" lon="-0.47239">
        <ele>2</ele>
        <time>2019-11-13T14:06:37.001Z</time>
      </trkpt>
      <trkpt lat="49.33489" lon="-0.47046">
        <ele>1.919</ele>
        <time>2019-11-13T14:07:10.002Z</time>
      </trkpt>
      <trkpt lat="49.33482" lon="-0.46839">
        <ele>2.975</ele>
        <time>2019-11-13T14:07:43.001Z</time>
      </trkpt>
      <trkpt lat="49.33473" lon="-0.46609">
        <ele>2.4</ele>
        <time>2019-11-13T14:08:16Z</time>
      </trkpt>
      <trkpt lat="49.33473" lon="-0.46368">
        <ele>3.414</ele>
        <time>2019-11-13T14:08:49.001Z</time>
      </trkpt>
      <trkpt lat="49.33407" lon="-0.46227">
        <ele>6.303</ele>
        <time>2019-11-13T14:09:19.001Z</time>
      </trkpt>
      <trkpt lat="49.3339" lon="-0.46092">
        <ele>3.8</ele>
        <time>2019-11-13T14:09:52.001Z</time>
      </trkpt>
      <trkpt lat="49.33519" lon="-0.45909">
        <ele>1.3</ele>
        <time>2019-11-13T14:10:25.001Z</time>
      </trkpt>
      <trkpt lat="49.33556" lon="-0.45673">
        <ele>4.9</ele>
        <time>2019-11-13T14:10:58.001Z</time>
      </trkpt>
      <trkpt lat="49.33557" lon="-0.45527">
        <ele>4.2</ele>
        <time>2019-11-13T14:11:28.001Z</time>
      </trkpt>
      <trkpt lat="49.33574" lon="-0.45531">
        <ele>4.313</ele>
        <time>2019-11-13T14:17:46.001Z</time>
      </trkpt>
      <trkpt lat="49.33559" lon="-0.45579">
        <ele>7.757</ele>
        <time>2019-11-13T14:18:43.001Z</time>
      </trkpt>
      <trkpt lat="49.33565" lon="-0.45575">
        <ele>10.099</ele>
        <time>2019-11-13T14:33:58.001Z</time>
      </trkpt>
    </trkseg>
  </trk>
</gpx>